< < Back
Terminal Aerodrome Forecast


Current Version              Previous Versions:   1  2  3  4  5  6  7  8  9  

Terminal Aerodrome Forecast

064
FTUS44 KOHX 042320
TAFBNA
TAF
KBNA 042320Z 0500/0524 31008KT P6SM SCT040 SCT100
     FM051500 33013KT P6SM SCT025 BKN040=



Latest METAR

540
SAUS70 KWBC 050100 RRI
MTRBNA
METAR KBNA 050053Z 34007KT 10SM FEW040 15/09 A2978 RMK AO2 SLP081
T01500094


USA.gov is the U.S. government's official web portal to all federal, state and local government web resources and services.